sensor_id;sensor_type;location;lat;lon;timestamp;pressure;altitude;pressure_sealevel;temperature;humidity
63554;BME280;49699;48.072;7.800;2023-04-03T00:00:06;100015.25;;;5.21;79.33
63554;BME280;49699;48.072;7.800;2023-04-03T00:02:31;100015.28;;;5.20;79.39
63554;BME280;49699;48.072;7.800;2023-04-03T00:04:57;100004.16;;;5.19;79.46
63554;BME280;49699;48.072;7.800;2023-04-03T00:07:22;100009.31;;;5.19;78.96
63554;BME280;49699;48.072;7.800;2023-04-03T00:09:47;100011.91;;;5.19;79.36
63554;BME280;49699;48.072;7.800;2023-04-03T00:12:13;100004.91;;;5.23;79.14
63554;BME280;49699;48.072;7.800;2023-04-03T00:14:38;100018.69;;;5.22;79.20
63554;BME280;49699;48.072;7.800;2023-04-03T00:17:03;100015.38;;;5.18;78.96
63554;BME280;49699;48.072;7.800;2023-04-03T00:19:29;100018.03;;;5.15;79.17
63554;BME280;49699;48.072;7.800;2023-04-03T00:21:55;100015.59;;;5.09;78.47
63554;BME280;49699;48.072;7.800;2023-04-03T00:24:20;100013.09;;;5.06;78.38
63554;BME280;49699;48.072;7.800;2023-04-03T00:26:45;100019.28;;;5.01;78.20
63554;BME280;49699;48.072;7.800;2023-04-03T00:29:12;100027.94;;;4.98;78.03
63554;BME280;49699;48.072;7.800;2023-04-03T00:31:37;100024.56;;;4.95;78.40
63554;BME280;49699;48.072;7.800;2023-04-03T00:34:02;100027.22;;;4.92;78.27
63554;BME280;49699;48.072;7.800;2023-04-03T00:36:28;100025.56;;;4.89;78.43
63554;BME280;49699;48.072;7.800;2023-04-03T00:38:53;100024.66;;;4.92;78.44
63554;BME280;49699;48.072;7.800;2023-04-03T00:41:18;100022.91;;;4.92;78.04
63554;BME280;49699;48.072;7.800;2023-04-03T00:43:44;100025.56;;;4.89;78.44
63554;BME280;49699;48.072;7.800;2023-04-03T00:46:09;100029.16;;;4.83;78.73
63554;BME280;49699;48.072;7.800;2023-04-03T00:48:37;100032.50;;;4.87;78.58
63554;BME280;49699;48.072;7.800;2023-04-03T00:51:04;100029.03;;;4.88;78.39
63554;BME280;49699;48.072;7.800;2023-04-03T00:53:33;100033.38;;;4.86;78.53
63554;BME280;49699;48.072;7.800;2023-04-03T00:56:02;100024.91;;;4.82;78.49
63554;BME280;49699;48.072;7.800;2023-04-03T00:58:34;100025.78;;;4.81;78.74
63554;BME280;49699;48.072;7.800;2023-04-03T01:01:03;100027.47;;;4.82;79.15
63554;BME280;49699;48.072;7.800;2023-04-03T01:03:30;100023.91;;;4.86;78.65
63554;BME280;49699;48.072;7.800;2023-04-03T01:05:57;100023.00;;;4.89;78.98
63554;BME280;49699;48.072;7.800;2023-04-03T01:08:23;100029.00;;;4.89;78.70
63554;BME280;49699;48.072;7.800;2023-04-03T01:10:48;100023.00;;;4.89;78.91
63554;BME280;49699;48.072;7.800;2023-04-03T01:13:28;100026.50;;;4.86;79.33
63554;BME280;49699;48.072;7.800;2023-04-03T01:15:54;100029.88;;;4.88;79.22
63554;BME280;49699;48.072;7.800;2023-04-03T01:18:20;100026.34;;;4.93;78.88
63554;BME280;49699;48.072;7.800;2023-04-03T01:21:10;100027.13;;;4.96;78.93
63554;BME280;49699;48.072;7.800;2023-04-03T01:23:33;100023.50;;;5.02;78.80
63554;BME280;49699;48.072;7.800;2023-04-03T01:26:01;100024.22;;;5.08;78.33
63554;BME280;49699;48.072;7.800;2023-04-03T01:28:28;100026.78;;;5.08;78.43
63554;BME280;49699;48.072;7.800;2023-04-03T01:33:39;100030.91;;;5.15;78.40
63554;BME280;49699;48.072;7.800;2023-04-03T01:36:04;100023.19;;;5.15;78.63
63554;BME280;49699;48.072;7.800;2023-04-03T01:38:31;100024.81;;;5.19;78.14
63554;BME280;49699;48.072;7.800;2023-04-03T01:40:56;100025.63;;;5.20;78.32
63554;BME280;49699;48.072;7.800;2023-04-03T01:43:22;100022.22;;;5.19;78.06
63554;BME280;49699;48.072;7.800;2023-04-03T01:45:47;100018.84;;;5.17;77.73
63554;BME280;49699;48.072;7.800;2023-04-03T01:48:15;100018.94;;;5.13;77.71
63554;BME280;49699;48.072;7.800;2023-04-03T01:50:41;100020.69;;;5.12;77.53
63554;BME280;49699;48.072;7.800;2023-04-03T01:53:07;100023.34;;;5.09;77.35
63554;BME280;49699;48.072;7.800;2023-04-03T01:55:32;100017.41;;;5.06;77.27
63554;BME280;49699;48.072;7.800;2023-04-03T01:57:58;100013.19;;;5.02;77.61
63554;BME280;49699;48.072;7.800;2023-04-03T02:00:23;100014.16;;;4.99;77.59
63554;BME280;49699;48.072;7.800;2023-04-03T02:02:49;100009.84;;;5.00;77.57
63554;BME280;49699;48.072;7.800;2023-04-03T02:05:14;100013.25;;;5.00;77.54
63554;BME280;49699;48.072;7.800;2023-04-03T02:07:40;100015.88;;;4.99;77.45
63554;BME280;49699;48.072;7.800;2023-04-03T02:10:07;100016.75;;;4.98;77.22
63554;BME280;49699;48.072;7.800;2023-04-03T02:12:32;100013.31;;;4.99;77.02
63554;BME280;49699;48.072;7.800;2023-04-03T02:14:57;100005.63;;;4.96;76.94
63554;BME280;49699;48.072;7.800;2023-04-03T02:17:23;100010.03;;;4.92;77.38
63554;BME280;49699;48.072;7.800;2023-04-03T02:19:48;100003.16;;;4.91;77.17
63554;BME280;49699;48.072;7.800;2023-04-03T02:22:13;100008.28;;;4.93;77.06
63554;BME280;49699;48.072;7.800;2023-04-03T02:24:39;100009.09;;;4.95;77.21
63554;BME280;49699;48.072;7.800;2023-04-03T02:27:05;100007.38;;;4.95;77.11
63554;BME280;49699;48.072;7.800;2023-04-03T02:29:30;100007.41;;;4.94;76.88
63554;BME280;49699;48.072;7.800;2023-04-03T02:31:55;100015.19;;;4.92;76.67
63554;BME280;49699;48.072;7.800;2023-04-03T02:34:22;100012.59;;;4.92;76.49
63554;BME280;49699;48.072;7.800;2023-04-03T02:36:48;100012.75;;;4.86;76.34
63554;BME280;49699;48.072;7.800;2023-04-03T02:39:15;100014.50;;;4.84;76.47
63554;BME280;49699;48.072;7.800;2023-04-03T02:41:41;100012.00;;;4.82;76.37
63554;BME280;49699;48.072;7.800;2023-04-03T02:44:13;100011.19;;;4.80;76.29
63554;BME280;49699;48.072;7.800;2023-04-03T02:46:39;100012.09;;;4.78;76.71
63554;BME280;49699;48.072;7.800;2023-04-03T02:49:04;100010.41;;;4.77;76.81
63554;BME280;49699;48.072;7.800;2023-04-03T02:51:30;100012.22;;;4.73;76.81
63554;BME280;49699;48.072;7.800;2023-04-03T02:53:55;100014.03;;;4.68;76.48
63554;BME280;49699;48.072;7.800;2023-04-03T02:56:25;100011.66;;;4.61;76.60
63554;BME280;49699;48.072;7.800;2023-04-03T02:58:51;100019.50;;;4.56;76.69
63554;BME280;49699;48.072;7.800;2023-04-03T03:01:18;100026.47;;;4.52;77.13
63554;BME280;49699;48.072;7.800;2023-04-03T03:03:43;100021.41;;;4.48;77.35
63554;BME280;49699;48.072;7.800;2023-04-03T03:06:10;100027.50;;;4.45;77.46
63554;BME280;49699;48.072;7.800;2023-04-03T03:08:35;100018.81;;;4.48;77.67
63554;BME280;49699;48.072;7.800;2023-04-03T03:11:01;100018.81;;;4.48;77.52
63554;BME280;49699;48.072;7.800;2023-04-03T03:13:26;100019.63;;;4.50;77.22
63554;BME280;49699;48.072;7.800;2023-04-03T03:15:52;100023.00;;;4.53;77.47
63554;BME280;49699;48.072;7.800;2023-04-03T03:18:17;100022.13;;;4.54;76.94
63554;BME280;49699;48.072;7.800;2023-04-03T03:20:43;100028.09;;;4.57;76.63
63554;BME280;49699;48.072;7.800;2023-04-03T03:23:08;100030.69;;;4.55;76.68
63554;BME280;49699;48.072;7.800;2023-04-03T03:25:37;100030.72;;;4.53;76.70
63554;BME280;49699;48.072;7.800;2023-04-03T03:28:02;100038.41;;;4.57;76.98
63554;BME280;49699;48.072;7.800;2023-04-03T03:30:28;100039.31;;;4.54;77.23
63554;BME280;49699;48.072;7.800;2023-04-03T03:32:53;100030.78;;;4.52;77.47
63554;BME280;49699;48.072;7.800;2023-04-03T03:35:19;100030.91;;;4.47;77.35
63554;BME280;49699;48.072;7.800;2023-04-03T03:37:46;100028.31;;;4.47;77.27
63554;BME280;49699;48.072;7.800;2023-04-03T03:40:12;100026.63;;;4.46;77.68
63554;BME280;49699;48.072;7.800;2023-04-03T03:42:38;100031.72;;;4.48;77.42
63554;BME280;49699;48.072;7.800;2023-04-03T03:45:03;100023.97;;;4.48;77.72
63554;BME280;49699;48.072;7.800;2023-04-03T03:47:29;100029.94;;;4.50;77.08
63554;BME280;49699;48.072;7.800;2023-04-03T03:49:55;100040.25;;;4.50;76.97
63554;BME280;49699;48.072;7.800;2023-04-03T03:52:20;100035.00;;;4.54;76.74
63554;BME280;49699;48.072;7.800;2023-04-03T03:54:46;100032.31;;;4.59;76.60
63554;BME280;49699;48.072;7.800;2023-04-03T03:57:11;100029.75;;;4.59;76.28
63554;BME280;49699;48.072;7.800;2023-04-03T03:59:36;100042.56;;;4.62;76.59
63554;BME280;49699;48.072;7.800;2023-04-03T04:02:02;100033.84;;;4.66;76.30
63554;BME280;49699;48.072;7.800;2023-04-03T04:04:27;100039.88;;;4.67;76.02
63554;BME280;49699;48.072;7.800;2023-04-03T04:06:54;100041.69;;;4.63;75.78
63554;BME280;49699;48.072;7.800;2023-04-03T04:09:19;100046.88;;;4.62;76.23
63554;BME280;49699;48.072;7.800;2023-04-03T04:11:44;100045.19;;;4.61;75.98
63554;BME280;49699;48.072;7.800;2023-04-03T04:14:11;100045.16;;;4.62;76.29
63554;BME280;49699;48.072;7.800;2023-04-03T04:16:38;100040.91;;;4.60;76.23
63554;BME280;49699;48.072;7.800;2023-04-03T04:19:09;100042.63;;;4.59;76.14
63554;BME280;49699;48.072;7.800;2023-04-03T04:21:36;100037.44;;;4.61;76.03
63554;BME280;49699;48.072;7.800;2023-04-03T04:24:01;100039.19;;;4.60;75.71
63554;BME280;49699;48.072;7.800;2023-04-03T04:26:27;100045.22;;;4.59;75.90
63554;BME280;49699;48.072;7.800;2023-04-03T04:28:52;100039.22;;;4.59;75.65
63554;BME280;49699;48.072;7.800;2023-04-03T04:31:18;100040.06;;;4.59;76.14
63554;BME280;49699;48.072;7.800;2023-04-03T04:33:44;100048.63;;;4.61;75.98
63554;BME280;49699;48.072;7.800;2023-04-03T04:36:12;100040.00;;;4.62;76.05
63554;BME280;49699;48.072;7.800;2023-04-03T04:38:41;100044.25;;;4.65;75.98
63554;BME280;49699;48.072;7.800;2023-04-03T04:41:06;100039.09;;;4.65;75.55
63554;BME280;49699;48.072;7.800;2023-04-03T04:43:32;100033.25;;;4.57;75.81
63554;BME280;49699;48.072;7.800;2023-04-03T04:46:01;100036.78;;;4.52;76.23
63554;BME280;49699;48.072;7.800;2023-04-03T04:48:27;100048.00;;;4.50;76.69
63554;BME280;49699;48.072;7.800;2023-04-03T04:50:52;100042.81;;;4.51;76.64
63554;BME280;49699;48.072;7.800;2023-04-03T04:53:18;100036.78;;;4.52;76.26
63554;BME280;49699;48.072;7.800;2023-04-03T04:55:43;100041.06;;;4.52;76.60
63554;BME280;49699;48.072;7.800;2023-04-03T04:58:08;100047.97;;;4.51;76.48
63554;BME280;49699;48.072;7.800;2023-04-03T05:00:34;100049.63;;;4.54;76.75
63554;BME280;49699;48.072;7.800;2023-04-03T05:02:59;100048.81;;;4.52;76.14
63554;BME280;49699;48.072;7.800;2023-04-03T05:05:25;100050.56;;;4.50;76.37
63554;BME280;49699;48.072;7.800;2023-04-03T05:07:50;100053.16;;;4.50;76.52
63554;BME280;49699;48.072;7.800;2023-04-03T05:10:16;100052.34;;;4.48;76.26
63554;BME280;49699;48.072;7.800;2023-04-03T05:12:41;100055.00;;;4.45;76.31
63554;BME280;49699;48.072;7.800;2023-04-03T05:15:07;100055.84;;;4.45;76.60
63554;BME280;49699;48.072;7.800;2023-04-03T05:17:32;100057.66;;;4.42;76.49
63554;BME280;49699;48.072;7.800;2023-04-03T05:19:58;100063.72;;;4.39;76.84
63554;BME280;49699;48.072;7.800;2023-04-03T05:22:25;100061.09;;;4.41;76.79
63554;BME280;49699;48.072;7.800;2023-04-03T05:24:54;100059.34;;;4.43;76.66
63554;BME280;49699;48.072;7.800;2023-04-03T05:27:20;100067.97;;;4.42;76.59
63554;BME280;49699;48.072;7.800;2023-04-03T05:29:52;100061.97;;;4.41;77.04
63554;BME280;49699;48.072;7.800;2023-04-03T05:32:20;100059.38;;;4.41;76.81
63554;BME280;49699;48.072;7.800;2023-04-03T05:34:49;100061.00;;;4.45;76.61
63554;BME280;49699;48.072;7.800;2023-04-03T05:37:15;100066.06;;;4.48;76.43
63554;BME280;49699;48.072;7.800;2023-04-03T05:39:40;100060.84;;;4.51;76.62
63554;BME280;49699;48.072;7.800;2023-04-03T05:42:06;100071.91;;;4.57;76.48
63554;BME280;49699;48.072;7.800;2023-04-03T05:44:32;100065.00;;;4.59;76.34
63554;BME280;49699;48.072;7.800;2023-04-03T05:46:58;100064.03;;;4.63;76.40
63554;BME280;49699;48.072;7.800;2023-04-03T05:49:23;100063.84;;;4.70;75.96
63554;BME280;49699;48.072;7.800;2023-04-03T05:51:49;100069.75;;;4.75;75.62
63554;BME280;49699;48.072;7.800;2023-04-03T05:54:27;100072.22;;;4.80;75.53
63554;BME280;49699;48.072;7.800;2023-04-03T05:57:00;100067.75;;;4.86;75.34
63554;BME280;49699;48.072;7.800;2023-04-03T05:59:26;100072.81;;;4.91;75.13
63554;BME280;49699;48.072;7.800;2023-04-03T06:01:54;100070.94;;;4.98;75.02
63554;BME280;49699;48.072;7.800;2023-04-03T06:04:20;100070.88;;;5.01;73.85
63554;BME280;49699;48.072;7.800;2023-04-03T06:09:11;100075.91;;;5.04;73.70
63554;BME280;49699;48.072;7.800;2023-04-03T06:11:36;100071.56;;;5.06;73.36
63554;BME280;49699;48.072;7.800;2023-04-03T06:14:02;100075.78;;;5.10;73.40
63554;BME280;49699;48.072;7.800;2023-04-03T06:16:28;100079.94;;;5.15;72.90
63554;BME280;49699;48.072;7.800;2023-04-03T06:18:53;100078.81;;;5.26;73.16
63554;BME280;49699;48.072;7.800;2023-04-03T06:21:19;100075.13;;;5.36;72.66
63554;BME280;49699;48.072;7.800;2023-04-03T06:23:45;100083.44;;;5.47;72.09
63554;BME280;49699;48.072;7.800;2023-04-03T06:26:11;100080.69;;;5.53;72.19
63554;BME280;49699;48.072;7.800;2023-04-03T06:28:36;100083.03;;;5.61;71.56
63554;BME280;49699;48.072;7.800;2023-04-03T06:31:01;100087.25;;;5.65;71.20
63554;BME280;49699;48.072;7.800;2023-04-03T06:33:26;100086.28;;;5.69;71.23
63554;BME280;49699;48.072;7.800;2023-04-03T06:35:55;100085.25;;;5.74;70.88
63554;BME280;49699;48.072;7.800;2023-04-03T06:38:20;100081.69;;;5.78;70.54
63554;BME280;49699;48.072;7.800;2023-04-03T06:40:46;100090.13;;;5.85;70.71
63554;BME280;49699;48.072;7.800;2023-04-03T06:43:12;100087.47;;;5.89;69.93
63554;BME280;49699;48.072;7.800;2023-04-03T06:45:37;100085.56;;;5.95;69.58
63554;BME280;49699;48.072;7.800;2023-04-03T06:48:02;100083.78;;;5.97;68.81
63554;BME280;49699;48.072;7.800;2023-04-03T06:50:28;100088.06;;;5.98;68.69
63554;BME280;49699;48.072;7.800;2023-04-03T06:52:53;100094.84;;;6.02;68.04
63554;BME280;49699;48.072;7.800;2023-04-03T06:55:18;100089.59;;;6.05;67.82
63554;BME280;49699;48.072;7.800;2023-04-03T06:57:43;100092.84;;;6.11;67.54
63554;BME280;49699;48.072;7.800;2023-04-03T07:00:10;100091.88;;;6.15;67.17
63554;BME280;49699;48.072;7.800;2023-04-03T07:02:35;100095.13;;;6.22;66.53
63554;BME280;49699;48.072;7.800;2023-04-03T07:05:01;100088.06;;;6.27;66.17
63554;BME280;49699;48.072;7.800;2023-04-03T07:07:26;100094.72;;;6.36;66.08
63554;BME280;49699;48.072;7.800;2023-04-03T07:09:52;100095.34;;;6.44;65.49
63554;BME280;49699;48.072;7.800;2023-04-03T07:12:17;100098.47;;;6.53;64.74
63554;BME280;49699;48.072;7.800;2023-04-03T07:14:42;100098.84;;;6.69;64.08
63554;BME280;49699;48.072;7.800;2023-04-03T07:17:08;100103.59;;;6.83;63.08
63554;BME280;49699;48.072;7.800;2023-04-03T07:19:34;100105.94;;;6.90;62.71
63554;BME280;49699;48.072;7.800;2023-04-03T07:21:59;100106.47;;;7.00;62.45
63554;BME280;49699;48.072;7.800;2023-04-03T07:24:24;100104.50;;;7.08;61.93
63554;BME280;49699;48.072;7.800;2023-04-03T07:26:53;100110.16;;;7.19;61.39
63554;BME280;49699;48.072;7.800;2023-04-03T07:29:19;100114.97;;;7.31;61.21
63554;BME280;49699;48.072;7.800;2023-04-03T07:31:46;100113.16;;;7.34;60.64
63554;BME280;49699;48.072;7.800;2023-04-03T07:34:12;100114.91;;;7.33;60.01
63554;BME280;49699;48.072;7.800;2023-04-03T07:36:37;100116.78;;;7.28;59.72
63554;BME280;49699;48.072;7.800;2023-04-03T07:39:02;100117.75;;;7.25;59.72
63554;BME280;49699;48.072;7.800;2023-04-03T07:41:28;100120.94;;;7.34;59.39
63554;BME280;49699;48.072;7.800;2023-04-03T07:43:53;100118.75;;;7.71;58.59
63554;BME280;49699;48.072;7.800;2023-04-03T07:46:19;100123.16;;;8.17;57.05
63554;BME280;49699;48.072;7.800;2023-04-03T07:48:45;100120.81;;;8.34;56.26
63554;BME280;49699;48.072;7.800;2023-04-03T07:51:11;100117.38;;;8.34;55.75
63554;BME280;49699;48.072;7.800;2023-04-03T07:53:36;100123.53;;;8.53;55.10
63554;BME280;49699;48.072;7.800;2023-04-03T07:56:01;100120.41;;;8.89;53.65
63554;BME280;49699;48.072;7.800;2023-04-03T07:58:28;100122.16;;;8.88;52.36
63554;BME280;49699;48.072;7.800;2023-04-03T08:00:53;100125.44;;;8.72;52.43
63554;BME280;49699;48.072;7.800;2023-04-03T08:03:18;100127.47;;;8.63;52.48
63554;BME280;49699;48.072;7.800;2023-04-03T08:05:45;100130.38;;;8.56;52.23
63554;BME280;49699;48.072;7.800;2023-04-03T08:08:12;100124.03;;;8.63;51.62
63554;BME280;49699;48.072;7.800;2023-04-03T08:10:37;100129.09;;;8.88;50.62
63554;BME280;49699;48.072;7.800;2023-04-03T08:13:03;100128.09;;;8.92;50.41
63554;BME280;49699;48.072;7.800;2023-04-03T08:15:29;100123.84;;;8.89;50.07
63554;BME280;49699;48.072;7.800;2023-04-03T08:17:55;100127.75;;;8.99;49.72
63554;BME280;49699;48.072;7.800;2023-04-03T08:20:21;100138.25;;;9.18;48.93
63554;BME280;49699;48.072;7.800;2023-04-03T08:22:46;100136.25;;;9.25;48.66
63554;BME280;49699;48.072;7.800;2023-04-03T08:25:11;100137.69;;;9.12;48.25
63554;BME280;49699;48.072;7.800;2023-04-03T08:27:37;100129.69;;;9.16;48.15
63554;BME280;49699;48.072;7.800;2023-04-03T08:30:03;100136.72;;;9.34;48.06
63554;BME280;49699;48.072;7.800;2023-04-03T08:32:29;100130.75;;;9.53;47.47
63554;BME280;49699;48.072;7.800;2023-04-03T08:34:54;100135.09;;;9.72;47.09
63554;BME280;49699;48.072;7.800;2023-04-03T08:37:20;100140.00;;;9.60;46.98
63554;BME280;49699;48.072;7.800;2023-04-03T08:39:45;100141.03;;;9.56;47.21
63554;BME280;49699;48.072;7.800;2023-04-03T08:42:36;100139.63;;;9.88;47.16
63554;BME280;49699;48.072;7.800;2023-04-03T08:44:59;100144.88;;;10.06;46.29
63554;BME280;49699;48.072;7.800;2023-04-03T08:47:48;100145.75;;;9.87;47.04
63554;BME280;49699;48.072;7.800;2023-04-03T08:50:12;100152.59;;;9.69;47.55
63554;BME280;49699;48.072;7.800;2023-04-03T08:52:50;100148.94;;;9.53;47.82
63554;BME280;49699;48.072;7.800;2023-04-03T08:55:27;100156.13;;;9.26;48.53
63554;BME280;49699;48.072;7.800;2023-04-03T08:58:15;100154.16;;;9.11;48.56
63554;BME280;49699;48.072;7.800;2023-04-03T09:01:00;100154.84;;;9.36;47.79
63554;BME280;49699;48.072;7.800;2023-04-03T09:03:24;100159.97;;;9.37;47.28
63554;BME280;49699;48.072;7.800;2023-04-03T09:05:57;100166.94;;;9.37;47.07
63554;BME280;49699;48.072;7.800;2023-04-03T09:08:28;100163.75;;;9.30;46.29
63554;BME280;49699;48.072;7.800;2023-04-03T09:10:58;100177.47;;;9.12;46.63
63554;BME280;49699;48.072;7.800;2023-04-03T09:13:43;100169.50;;;8.95;46.63
63554;BME280;49699;48.072;7.800;2023-04-03T09:16:54;100170.03;;;8.81;46.29
63554;BME280;49699;48.072;7.800;2023-04-03T09:19:07;100163.56;;;8.69;46.82
63554;BME280;49699;48.072;7.800;2023-04-03T09:21:38;100165.53;;;8.63;46.96
63554;BME280;49699;48.072;7.800;2023-04-03T09:24:04;100166.50;;;8.60;47.06
63554;BME280;49699;48.072;7.800;2023-04-03T09:26:36;100166.69;;;8.56;47.05
63554;BME280;49699;48.072;7.800;2023-04-03T09:29:06;100163.91;;;8.60;47.21
63554;BME280;49699;48.072;7.800;2023-04-03T09:31:36;100174.78;;;8.70;46.80
63554;BME280;49699;48.072;7.800;2023-04-03T09:34:03;100165.75;;;8.80;46.94
63554;BME280;49699;48.072;7.800;2023-04-03T09:36:37;100168.16;;;8.85;47.17
63554;BME280;49699;48.072;7.800;2023-04-03T09:39:03;100168.06;;;9.10;46.69
63554;BME280;49699;48.072;7.800;2023-04-03T09:41:30;100169.47;;;9.17;46.28
63554;BME280;49699;48.072;7.800;2023-04-03T09:43:55;100169.19;;;9.02;45.85
63554;BME280;49699;48.072;7.800;2023-04-03T09:46:33;100171.00;;;9.00;45.86
63554;BME280;49699;48.072;7.800;2023-04-03T09:49:00;100178.25;;;9.56;45.10
63554;BME280;49699;48.072;7.800;2023-04-03T09:51:26;100167.72;;;10.00;43.75
63554;BME280;49699;48.072;7.800;2023-04-03T09:53:55;100174.41;;;10.26;43.02
63554;BME280;49699;48.072;7.800;2023-04-03T09:56:25;100177.13;;;10.23;42.95
63554;BME280;49699;48.072;7.800;2023-04-03T09:58:52;100174.94;;;9.93;43.33
63554;BME280;49699;48.072;7.800;2023-04-03T10:01:32;100183.31;;;9.59;44.08
63554;BME280;49699;48.072;7.800;2023-04-03T10:09:16;100179.16;;;10.16;42.16
63554;BME280;49699;48.072;7.800;2023-04-03T10:12:15;100178.44;;;9.92;42.59
63554;BME280;49699;48.072;7.800;2023-04-03T10:14:57;100192.81;;;9.60;43.43
63554;BME280;49699;48.072;7.800;2023-04-03T10:19:56;100179.16;;;9.13;44.11
63554;BME280;49699;48.072;7.800;2023-04-03T10:22:31;100170.16;;;9.00;44.08
63554;BME280;49699;48.072;7.800;2023-04-03T10:27:36;100178.59;;;8.83;44.23
63554;BME280;49699;48.072;7.800;2023-04-03T10:32:51;100168.69;;;8.71;44.66
63554;BME280;49699;48.072;7.800;2023-04-03T10:35:33;100178.91;;;8.76;44.46
63554;BME280;49699;48.072;7.800;2023-04-03T10:40:55;100175.56;;;8.95;44.13
63554;BME280;49699;48.072;7.800;2023-04-03T10:46:00;100172.53;;;9.06;43.99
63554;BME280;49699;48.072;7.800;2023-04-03T10:58:52;100173.88;;;9.36;44.20
63554;BME280;49699;48.072;7.800;2023-04-03T11:01:20;100160.09;;;9.34;44.21
63554;BME280;49699;48.072;7.800;2023-04-03T11:03:52;100165.56;;;9.28;44.18
63554;BME280;49699;48.072;7.800;2023-04-03T11:06:18;100167.56;;;9.22;44.17
63554;BME280;49699;48.072;7.800;2023-04-03T11:08:46;100158.25;;;9.16;44.24
63554;BME280;49699;48.072;7.800;2023-04-03T11:11:46;100161.16;;;9.09;44.66
63554;BME280;49699;48.072;7.800;2023-04-03T11:14:13;100162.00;;;9.09;45.01
63554;BME280;49699;48.072;7.800;2023-04-03T11:16:48;100164.63;;;9.09;44.72
63554;BME280;49699;48.072;7.800;2023-04-03T11:21:43;100154.34;;;9.48;44.16
63554;BME280;49699;48.072;7.800;2023-04-03T11:24:28;100159.28;;;9.54;43.99
63554;BME280;49699;48.072;7.800;2023-04-03T11:26:55;100152.72;;;9.46;44.09
63554;BME280;49699;48.072;7.800;2023-04-03T11:29:23;100152.06;;;9.40;44.84
63554;BME280;49699;48.072;7.800;2023-04-03T11:32:51;100146.47;;;9.50;44.73
63554;BME280;49699;48.072;7.800;2023-04-03T11:34:45;100147.97;;;9.75;44.55
63554;BME280;49699;48.072;7.800;2023-04-03T11:39:41;100142.66;;;10.18;43.69
63554;BME280;49699;48.072;7.800;2023-04-03T11:53:01;100120.09;;;10.18;42.82
63554;BME280;49699;48.072;7.800;2023-04-03T12:05:52;100125.03;;;10.04;43.29
63554;BME280;49699;48.072;7.800;2023-04-03T12:11:50;100124.56;;;9.96;43.67
63554;BME280;49699;48.072;7.800;2023-04-03T12:16:56;100115.88;;;10.16;42.89
63554;BME280;49699;48.072;7.800;2023-04-03T12:37:03;100114.16;;;9.96;43.13
63554;BME280;49699;48.072;7.800;2023-04-03T12:44:50;100106.63;;;9.69;44.20
63554;BME280;49699;48.072;7.800;2023-04-03T12:47:36;100112.84;;;9.67;44.15
63554;BME280;49699;48.072;7.800;2023-04-03T12:50:24;100107.06;;;9.60;44.14
63554;BME280;49699;48.072;7.800;2023-04-03T12:55:23;100110.03;;;9.51;44.94
63554;BME280;49699;48.072;7.800;2023-04-03T12:57:48;100106.81;;;9.46;44.63
63554;BME280;49699;48.072;7.800;2023-04-03T13:00:22;100111.47;;;9.38;44.56
63554;BME280;49699;48.072;7.800;2023-04-03T13:02:48;100110.63;;;9.37;44.95
63554;BME280;49699;48.072;7.800;2023-04-03T13:05:15;100112.38;;;9.37;44.96
63554;BME280;49699;48.072;7.800;2023-04-03T13:07:41;100104.44;;;9.40;44.76
63554;BME280;49699;48.072;7.800;2023-04-03T13:12:56;100100.09;;;9.61;44.55
63554;BME280;49699;48.072;7.800;2023-04-03T13:15:23;100095.28;;;9.72;43.71
63554;BME280;49699;48.072;7.800;2023-04-03T13:17:50;100090.00;;;9.73;44.14
63554;BME280;49699;48.072;7.800;2023-04-03T13:20:19;100084.47;;;9.81;43.96
63554;BME280;49699;48.072;7.800;2023-04-03T13:22:50;100084.25;;;9.86;44.15
63554;BME280;49699;48.072;7.800;2023-04-03T13:25:17;100084.91;;;9.91;43.69
63554;BME280;49699;48.072;7.800;2023-04-03T13:27:44;100085.03;;;9.88;43.47
63554;BME280;49699;48.072;7.800;2023-04-03T13:32:57;100092.66;;;9.72;44.13
63554;BME280;49699;48.072;7.800;2023-04-03T13:35:30;100084.69;;;9.56;44.07
63554;BME280;49699;48.072;7.800;2023-04-03T13:37:56;100090.50;;;9.43;44.46
63554;BME280;49699;48.072;7.800;2023-04-03T13:40:22;100097.91;;;9.31;44.85
63554;BME280;49699;48.072;7.800;2023-04-03T13:42:48;100093.88;;;9.24;44.61
63554;BME280;49699;48.072;7.800;2023-04-03T13:45:24;100089.44;;;9.26;44.94
63554;BME280;49699;48.072;7.800;2023-04-03T13:47:53;100091.59;;;9.37;44.90
63554;BME280;49699;48.072;7.800;2023-04-03T13:50:26;100082.69;;;9.43;45.07
63554;BME280;49699;48.072;7.800;2023-04-03T13:52:55;100086.09;;;9.45;45.09
63554;BME280;49699;48.072;7.800;2023-04-03T13:57:54;100089.50;;;9.25;45.36
63554;BME280;49699;48.072;7.800;2023-04-03T14:00:21;100084.69;;;9.16;44.79
63554;BME280;49699;48.072;7.800;2023-04-03T14:02:53;100088.59;;;9.05;44.44
63554;BME280;49699;48.072;7.800;2023-04-03T14:05:19;100079.22;;;9.01;44.54
63554;BME280;49699;48.072;7.800;2023-04-03T14:07:46;100082.72;;;9.00;44.57
63554;BME280;49699;48.072;7.800;2023-04-03T14:10:11;100084.47;;;9.00;44.40
63554;BME280;49699;48.072;7.800;2023-04-03T14:12:37;100080.97;;;9.01;44.28
63554;BME280;49699;48.072;7.800;2023-04-03T14:15:11;100071.13;;;9.09;44.80
63554;BME280;49699;48.072;7.800;2023-04-03T14:17:37;100071.44;;;9.22;44.50
63554;BME280;49699;48.072;7.800;2023-04-03T14:20:03;100066.00;;;9.28;44.45
63554;BME280;49699;48.072;7.800;2023-04-03T14:22:30;100061.00;;;9.23;44.14
63554;BME280;49699;48.072;7.800;2023-04-03T14:24:56;100065.03;;;9.10;44.54
63554;BME280;49699;48.072;7.800;2023-04-03T14:27:23;100056.03;;;8.97;44.87
63554;BME280;49699;48.072;7.800;2023-04-03T14:29:49;100064.16;;;8.89;44.51
63554;BME280;49699;48.072;7.800;2023-04-03T14:32:16;100063.59;;;8.81;44.86
63554;BME280;49699;48.072;7.800;2023-04-03T14:34:42;100061.22;;;8.77;44.92
63554;BME280;49699;48.072;7.800;2023-04-03T14:37:15;100059.38;;;8.79;45.00
63554;BME280;49699;48.072;7.800;2023-04-03T14:39:41;100061.13;;;8.78;45.03
63554;BME280;49699;48.072;7.800;2023-04-03T14:42:10;100057.78;;;8.76;44.88